sensor_id;sensor_type;location;lat;lon;timestamp;P1;durP1;ratioP1;P2;durP2;ratioP2
65145;SDS011;51730;56.950;24.126;2022-08-19T00:02:01;19.30;;;13.80;;
65145;SDS011;51730;56.950;24.126;2022-08-19T00:04:30;16.83;;;12.45;;
65145;SDS011;51730;56.950;24.126;2022-08-19T00:07:01;21.63;;;12.25;;
65145;SDS011;51730;56.950;24.126;2022-08-19T00:09:29;27.63;;;13.00;;
65145;SDS011;51730;56.950;24.126;2022-08-19T00:11:57;20.35;;;11.25;;
65145;SDS011;51730;56.950;24.126;2022-08-19T00:14:25;18.38;;;12.65;;
65145;SDS011;51730;56.950;24.126;2022-08-19T00:16:53;17.50;;;12.82;;
65145;SDS011;51730;56.950;24.126;2022-08-19T00:19:21;25.65;;;12.48;;
65145;SDS011;51730;56.950;24.126;2022-08-19T00:21:48;14.63;;;12.50;;
65145;SDS011;51730;56.950;24.126;2022-08-19T00:24:15;21.35;;;12.50;;
65145;SDS011;51730;56.950;24.126;2022-08-19T00:26:42;16.95;;;12.00;;
65145;SDS011;51730;56.950;24.126;2022-08-19T00:29:12;19.55;;;12.93;;
65145;SDS011;51730;56.950;24.126;2022-08-19T00:31:41;15.48;;;12.02;;
65145;SDS011;51730;56.950;24.126;2022-08-19T00:34:09;17.92;;;12.05;;
65145;SDS011;51730;56.950;24.126;2022-08-19T00:36:38;22.17;;;12.40;;
65145;SDS011;51730;56.950;24.126;2022-08-19T00:39:06;17.50;;;12.02;;
65145;SDS011;51730;56.950;24.126;2022-08-19T00:41:35;23.45;;;13.35;;
65145;SDS011;51730;56.950;24.126;2022-08-19T00:44:10;16.80;;;12.27;;
65145;SDS011;51730;56.950;24.126;2022-08-19T00:46:41;19.40;;;12.88;;
65145;SDS011;51730;56.950;24.126;2022-08-19T00:49:11;22.15;;;13.07;;
65145;SDS011;51730;56.950;24.126;2022-08-19T00:51:47;18.33;;;11.90;;
65145;SDS011;51730;56.950;24.126;2022-08-19T00:54:17;19.83;;;12.63;;
65145;SDS011;51730;56.950;24.126;2022-08-19T00:56:55;18.15;;;12.65;;
65145;SDS011;51730;56.950;24.126;2022-08-19T00:59:22;18.05;;;12.77;;
65145;SDS011;51730;56.950;24.126;2022-08-19T01:02:09;21.35;;;12.55;;
65145;SDS011;51730;56.950;24.126;2022-08-19T01:04:36;16.58;;;12.00;;
65145;SDS011;51730;56.950;24.126;2022-08-19T01:07:03;19.58;;;13.15;;
65145;SDS011;51730;56.950;24.126;2022-08-19T01:09:30;21.95;;;13.70;;
65145;SDS011;51730;56.950;24.126;2022-08-19T01:11:57;21.45;;;13.38;;
65145;SDS011;51730;56.950;24.126;2022-08-19T01:14:24;16.08;;;13.00;;
65145;SDS011;51730;56.950;24.126;2022-08-19T01:16:52;24.60;;;13.57;;
65145;SDS011;51730;56.950;24.126;2022-08-19T01:19:28;20.20;;;12.73;;
65145;SDS011;51730;56.950;24.126;2022-08-19T01:25:03;18.25;;;13.18;;
65145;SDS011;51730;56.950;24.126;2022-08-19T01:27:41;20.98;;;13.32;;
65145;SDS011;51730;56.950;24.126;2022-08-19T01:30:15;18.08;;;13.05;;
65145;SDS011;51730;56.950;24.126;2022-08-19T01:32:45;15.50;;;13.02;;
65145;SDS011;51730;56.950;24.126;2022-08-19T01:35:12;17.45;;;13.30;;
65145;SDS011;51730;56.950;24.126;2022-08-19T01:37:51;17.02;;;12.75;;
65145;SDS011;51730;56.950;24.126;2022-08-19T01:40:22;22.13;;;12.85;;
65145;SDS011;51730;56.950;24.126;2022-08-19T01:42:51;17.50;;;12.38;;
65145;SDS011;51730;56.950;24.126;2022-08-19T01:45:20;20.10;;;12.52;;
65145;SDS011;51730;56.950;24.126;2022-08-19T01:47:49;18.88;;;12.73;;
65145;SDS011;51730;56.950;24.126;2022-08-19T01:50:26;17.25;;;12.48;;
65145;SDS011;51730;56.950;24.126;2022-08-19T01:52:53;22.25;;;12.85;;
65145;SDS011;51730;56.950;24.126;2022-08-19T01:55:32;18.88;;;12.50;;
65145;SDS011;51730;56.950;24.126;2022-08-19T01:58:00;18.95;;;12.10;;
65145;SDS011;51730;56.950;24.126;2022-08-19T02:00:30;20.53;;;13.43;;
65145;SDS011;51730;56.950;24.126;2022-08-19T02:02:58;20.63;;;12.57;;
65145;SDS011;51730;56.950;24.126;2022-08-19T02:05:27;17.58;;;12.18;;
65145;SDS011;51730;56.950;24.126;2022-08-19T02:07:56;18.42;;;12.60;;
65145;SDS011;51730;56.950;24.126;2022-08-19T02:10:23;15.05;;;12.48;;
65145;SDS011;51730;56.950;24.126;2022-08-19T02:12:50;16.70;;;12.55;;
65145;SDS011;51730;56.950;24.126;2022-08-19T02:15:18;18.40;;;12.45;;
65145;SDS011;51730;56.950;24.126;2022-08-19T02:17:46;15.23;;;12.00;;
65145;SDS011;51730;56.950;24.126;2022-08-19T02:20:14;17.98;;;12.35;;
65145;SDS011;51730;56.950;24.126;2022-08-19T02:22:41;16.40;;;11.88;;
65145;SDS011;51730;56.950;24.126;2022-08-19T02:25:09;17.10;;;11.82;;
65145;SDS011;51730;56.950;24.126;2022-08-19T02:27:38;17.38;;;12.25;;
65145;SDS011;51730;56.950;24.126;2022-08-19T02:30:06;24.25;;;14.40;;
65145;SDS011;51730;56.950;24.126;2022-08-19T02:32:39;17.58;;;13.82;;
65145;SDS011;51730;56.950;24.126;2022-08-19T02:35:10;18.73;;;13.45;;
65145;SDS011;51730;56.950;24.126;2022-08-19T02:37:38;21.67;;;13.07;;
65145;SDS011;51730;56.950;24.126;2022-08-19T02:40:24;21.33;;;12.90;;
65145;SDS011;51730;56.950;24.126;2022-08-19T02:42:51;16.52;;;11.90;;
65145;SDS011;51730;56.950;24.126;2022-08-19T02:45:18;18.52;;;12.48;;
65145;SDS011;51730;56.950;24.126;2022-08-19T02:47:45;17.42;;;12.57;;
65145;SDS011;51730;56.950;24.126;2022-08-19T02:50:12;16.17;;;11.73;;
65145;SDS011;51730;56.950;24.126;2022-08-19T02:52:40;16.60;;;12.00;;
65145;SDS011;51730;56.950;24.126;2022-08-19T02:55:07;19.38;;;12.88;;
65145;SDS011;51730;56.950;24.126;2022-08-19T02:57:35;17.95;;;12.70;;
65145;SDS011;51730;56.950;24.126;2022-08-19T03:00:04;14.73;;;12.32;;
65145;SDS011;51730;56.950;24.126;2022-08-19T03:02:32;16.17;;;12.50;;
65145;SDS011;51730;56.950;24.126;2022-08-19T03:04:59;18.70;;;12.77;;
65145;SDS011;51730;56.950;24.126;2022-08-19T03:07:28;16.55;;;12.52;;
65145;SDS011;51730;56.950;24.126;2022-08-19T03:09:56;20.08;;;14.68;;
65145;SDS011;51730;56.950;24.126;2022-08-19T03:12:23;17.67;;;13.95;;
65145;SDS011;51730;56.950;24.126;2022-08-19T03:14:50;22.88;;;13.65;;
65145;SDS011;51730;56.950;24.126;2022-08-19T03:17:18;18.25;;;13.10;;
65145;SDS011;51730;56.950;24.126;2022-08-19T03:19:45;19.27;;;12.75;;
65145;SDS011;51730;56.950;24.126;2022-08-19T03:22:12;20.77;;;13.10;;
65145;SDS011;51730;56.950;24.126;2022-08-19T03:24:39;21.08;;;12.80;;
65145;SDS011;51730;56.950;24.126;2022-08-19T03:27:06;17.58;;;12.30;;
65145;SDS011;51730;56.950;24.126;2022-08-19T03:29:33;17.48;;;12.82;;
65145;SDS011;51730;56.950;24.126;2022-08-19T03:32:09;19.55;;;12.23;;
65145;SDS011;51730;56.950;24.126;2022-08-19T03:34:56;18.23;;;12.02;;
65145;SDS011;51730;56.950;24.126;2022-08-19T03:37:23;16.38;;;11.95;;
65145;SDS011;51730;56.950;24.126;2022-08-19T03:39:51;16.42;;;11.93;;
65145;SDS011;51730;56.950;24.126;2022-08-19T03:42:18;17.30;;;12.43;;
65145;SDS011;51730;56.950;24.126;2022-08-19T03:44:58;22.75;;;12.38;;
65145;SDS011;51730;56.950;24.126;2022-08-19T03:47:25;19.42;;;12.27;;
65145;SDS011;51730;56.950;24.126;2022-08-19T03:49:52;19.83;;;12.07;;
65145;SDS011;51730;56.950;24.126;2022-08-19T03:52:19;17.33;;;12.15;;
65145;SDS011;51730;56.950;24.126;2022-08-19T03:54:46;20.48;;;14.07;;
65145;SDS011;51730;56.950;24.126;2022-08-19T03:57:13;23.95;;;18.02;;
65145;SDS011;51730;56.950;24.126;2022-08-19T03:59:40;18.08;;;12.05;;
65145;SDS011;51730;56.950;24.126;2022-08-19T04:02:09;19.10;;;12.65;;
65145;SDS011;51730;56.950;24.126;2022-08-19T04:04:38;16.67;;;12.07;;
65145;SDS011;51730;56.950;24.126;2022-08-19T04:07:06;23.65;;;12.20;;
65145;SDS011;51730;56.950;24.126;2022-08-19T04:09:34;21.67;;;12.52;;
65145;SDS011;51730;56.950;24.126;2022-08-19T04:12:03;21.23;;;18.38;;
65145;SDS011;51730;56.950;24.126;2022-08-19T04:14:32;24.92;;;13.75;;
65145;SDS011;51730;56.950;24.126;2022-08-19T04:17:00;20.27;;;12.60;;
65145;SDS011;51730;56.950;24.126;2022-08-19T04:21:59;19.10;;;12.02;;
65145;SDS011;51730;56.950;24.126;2022-08-19T04:24:26;18.88;;;13.65;;
65145;SDS011;51730;56.950;24.126;2022-08-19T04:26:53;20.58;;;13.45;;
65145;SDS011;51730;56.950;24.126;2022-08-19T04:29:21;15.10;;;12.38;;
65145;SDS011;51730;56.950;24.126;2022-08-19T04:31:51;16.90;;;11.23;;
65145;SDS011;51730;56.950;24.126;2022-08-19T04:34:20;15.88;;;11.00;;
65145;SDS011;51730;56.950;24.126;2022-08-19T04:36:50;19.75;;;12.60;;
65145;SDS011;51730;56.950;24.126;2022-08-19T04:39:20;14.80;;;10.85;;
65145;SDS011;51730;56.950;24.126;2022-08-19T04:42:09;15.50;;;10.05;;
65145;SDS011;51730;56.950;24.126;2022-08-19T04:44:56;14.05;;;11.00;;
65145;SDS011;51730;56.950;24.126;2022-08-19T04:47:25;16.55;;;10.65;;
65145;SDS011;51730;56.950;24.126;2022-08-19T04:50:12;26.75;;;15.27;;
65145;SDS011;51730;56.950;24.126;2022-08-19T04:52:39;14.20;;;11.15;;
65145;SDS011;51730;56.950;24.126;2022-08-19T04:55:09;17.20;;;10.60;;
65145;SDS011;51730;56.950;24.126;2022-08-19T04:57:37;13.57;;;10.48;;
65145;SDS011;51730;56.950;24.126;2022-08-19T05:00:07;15.18;;;10.20;;
65145;SDS011;51730;56.950;24.126;2022-08-19T05:02:35;21.05;;;10.02;;
65145;SDS011;51730;56.950;24.126;2022-08-19T05:05:04;14.82;;;10.05;;
65145;SDS011;51730;56.950;24.126;2022-08-19T05:07:36;14.13;;;9.15;;
65145;SDS011;51730;56.950;24.126;2022-08-19T05:10:04;20.65;;;10.63;;
65145;SDS011;51730;56.950;24.126;2022-08-19T05:12:32;16.00;;;10.07;;
65145;SDS011;51730;56.950;24.126;2022-08-19T05:14:59;16.38;;;11.75;;
65145;SDS011;51730;56.950;24.126;2022-08-19T05:17:28;17.48;;;10.93;;
65145;SDS011;51730;56.950;24.126;2022-08-19T05:20:01;21.17;;;12.57;;
65145;SDS011;51730;56.950;24.126;2022-08-19T05:22:48;19.15;;;10.25;;
65145;SDS011;51730;56.950;24.126;2022-08-19T05:25:17;17.92;;;12.30;;
65145;SDS011;51730;56.950;24.126;2022-08-19T05:27:46;17.98;;;10.77;;
65145;SDS011;51730;56.950;24.126;2022-08-19T05:30:13;23.33;;;14.80;;
65145;SDS011;51730;56.950;24.126;2022-08-19T05:32:41;18.52;;;12.30;;
65145;SDS011;51730;56.950;24.126;2022-08-19T05:35:09;21.48;;;11.30;;
65145;SDS011;51730;56.950;24.126;2022-08-19T05:37:36;23.58;;;14.27;;
65145;SDS011;51730;56.950;24.126;2022-08-19T05:40:07;13.73;;;10.20;;
65145;SDS011;51730;56.950;24.126;2022-08-19T05:42:34;21.35;;;10.07;;
65145;SDS011;51730;56.950;24.126;2022-08-19T05:45:01;17.08;;;9.90;;
65145;SDS011;51730;56.950;24.126;2022-08-19T05:47:29;16.45;;;9.73;;
65145;SDS011;51730;56.950;24.126;2022-08-19T05:49:55;15.27;;;11.60;;
65145;SDS011;51730;56.950;24.126;2022-08-19T05:52:22;25.67;;;17.30;;
65145;SDS011;51730;56.950;24.126;2022-08-19T05:54:51;21.98;;;15.15;;
65145;SDS011;51730;56.950;24.126;2022-08-19T05:57:21;19.70;;;13.52;;
65145;SDS011;51730;56.950;24.126;2022-08-19T05:59:49;19.38;;;10.40;;
65145;SDS011;51730;56.950;24.126;2022-08-19T06:02:23;13.48;;;9.60;;
65145;SDS011;51730;56.950;24.126;2022-08-19T06:04:54;16.83;;;10.20;;
65145;SDS011;51730;56.950;24.126;2022-08-19T06:07:21;12.43;;;8.38;;
65145;SDS011;51730;56.950;24.126;2022-08-19T06:09:48;14.90;;;9.68;;
65145;SDS011;51730;56.950;24.126;2022-08-19T06:12:27;15.57;;;10.05;;
65145;SDS011;51730;56.950;24.126;2022-08-19T06:14:58;12.40;;;9.13;;
65145;SDS011;51730;56.950;24.126;2022-08-19T06:17:27;13.80;;;8.80;;
65145;SDS011;51730;56.950;24.126;2022-08-19T06:19:57;12.07;;;8.32;;
65145;SDS011;51730;56.950;24.126;2022-08-19T06:22:25;16.30;;;9.40;;
65145;SDS011;51730;56.950;24.126;2022-08-19T06:24:53;27.40;;;19.75;;
65145;SDS011;51730;56.950;24.126;2022-08-19T06:27:20;23.48;;;14.13;;
65145;SDS011;51730;56.950;24.126;2022-08-19T06:29:48;26.42;;;18.00;;
65145;SDS011;51730;56.950;24.126;2022-08-19T06:32:16;17.38;;;9.55;;
65145;SDS011;51730;56.950;24.126;2022-08-19T06:34:44;16.15;;;8.45;;
65145;SDS011;51730;56.950;24.126;2022-08-19T06:37:12;10.57;;;8.55;;
65145;SDS011;51730;56.950;24.126;2022-08-19T06:39:40;11.80;;;7.72;;
65145;SDS011;51730;56.950;24.126;2022-08-19T06:42:08;13.20;;;8.00;;
65145;SDS011;51730;56.950;24.126;2022-08-19T06:44:40;12.05;;;9.07;;
65145;SDS011;51730;56.950;24.126;2022-08-19T06:47:14;16.88;;;9.30;;
65145;SDS011;51730;56.950;24.126;2022-08-19T06:49:56;18.40;;;9.70;;
65145;SDS011;51730;56.950;24.126;2022-08-19T06:52:32;14.20;;;8.25;;
65145;SDS011;51730;56.950;24.126;2022-08-19T06:55:03;18.33;;;8.27;;
65145;SDS011;51730;56.950;24.126;2022-08-19T06:57:32;14.80;;;8.02;;
65145;SDS011;51730;56.950;24.126;2022-08-19T06:59:59;10.52;;;7.25;;
65145;SDS011;51730;56.950;24.126;2022-08-19T07:02:27;15.80;;;8.05;;
65145;SDS011;51730;56.950;24.126;2022-08-19T07:04:54;12.63;;;7.40;;
65145;SDS011;51730;56.950;24.126;2022-08-19T07:07:24;12.55;;;7.45;;
65145;SDS011;51730;56.950;24.126;2022-08-19T07:09:51;12.65;;;7.70;;
65145;SDS011;51730;56.950;24.126;2022-08-19T07:12:28;15.95;;;7.63;;
65145;SDS011;51730;56.950;24.126;2022-08-19T07:15:01;14.35;;;7.97;;
65145;SDS011;51730;56.950;24.126;2022-08-19T07:17:30;15.20;;;7.97;;
65145;SDS011;51730;56.950;24.126;2022-08-19T07:20:00;17.98;;;10.18;;
65145;SDS011;51730;56.950;24.126;2022-08-19T07:22:34;16.42;;;8.90;;
65145;SDS011;51730;56.950;24.126;2022-08-19T07:25:02;17.17;;;7.72;;
65145;SDS011;51730;56.950;24.126;2022-08-19T07:27:30;11.55;;;7.32;;
65145;SDS011;51730;56.950;24.126;2022-08-19T07:29:59;13.93;;;7.20;;
65145;SDS011;51730;56.950;24.126;2022-08-19T07:32:27;14.13;;;8.20;;
65145;SDS011;51730;56.950;24.126;2022-08-19T07:34:54;12.57;;;8.32;;
65145;SDS011;51730;56.950;24.126;2022-08-19T07:37:22;18.42;;;9.80;;
65145;SDS011;51730;56.950;24.126;2022-08-19T07:39:54;10.50;;;8.38;;
65145;SDS011;51730;56.950;24.126;2022-08-19T07:42:21;14.48;;;10.10;;
65145;SDS011;51730;56.950;24.126;2022-08-19T07:44:48;21.73;;;15.45;;
65145;SDS011;51730;56.950;24.126;2022-08-19T07:47:16;20.80;;;14.35;;
65145;SDS011;51730;56.950;24.126;2022-08-19T07:50:05;11.50;;;8.40;;
65145;SDS011;51730;56.950;24.126;2022-08-19T07:52:34;15.82;;;9.15;;
65145;SDS011;51730;56.950;24.126;2022-08-19T07:55:04;21.95;;;16.67;;
65145;SDS011;51730;56.950;24.126;2022-08-19T07:57:52;19.17;;;10.18;;
65145;SDS011;51730;56.950;24.126;2022-08-19T08:00:19;19.80;;;11.13;;
65145;SDS011;51730;56.950;24.126;2022-08-19T08:02:50;13.57;;;9.60;;
65145;SDS011;51730;56.950;24.126;2022-08-19T08:05:21;11.07;;;7.63;;
65145;SDS011;51730;56.950;24.126;2022-08-19T08:08:09;17.40;;;6.90;;
65145;SDS011;51730;56.950;24.126;2022-08-19T08:10:53;14.55;;;7.07;;
65145;SDS011;51730;56.950;24.126;2022-08-19T08:13:22;19.80;;;8.07;;
65145;SDS011;51730;56.950;24.126;2022-08-19T08:15:49;11.18;;;7.10;;
65145;SDS011;51730;56.950;24.126;2022-08-19T08:18:20;10.75;;;6.65;;
65145;SDS011;51730;56.950;24.126;2022-08-19T08:20:53;10.93;;;6.60;;
65145;SDS011;51730;56.950;24.126;2022-08-19T08:23:24;14.02;;;6.53;;
65145;SDS011;51730;56.950;24.126;2022-08-19T08:26:11;13.88;;;6.60;;
65145;SDS011;51730;56.950;24.126;2022-08-19T08:28:41;18.98;;;8.85;;
65145;SDS011;51730;56.950;24.126;2022-08-19T08:31:13;18.48;;;11.23;;
65145;SDS011;51730;56.950;24.126;2022-08-19T08:33:40;17.30;;;9.55;;
65145;SDS011;51730;56.950;24.126;2022-08-19T08:36:08;19.00;;;7.10;;
65145;SDS011;51730;56.950;24.126;2022-08-19T08:38:36;10.55;;;6.55;;
65145;SDS011;51730;56.950;24.126;2022-08-19T08:44:20;13.10;;;6.88;;
65145;SDS011;51730;56.950;24.126;2022-08-19T08:47:02;15.18;;;6.20;;
65145;SDS011;51730;56.950;24.126;2022-08-19T08:52:10;10.98;;;6.53;;
65145;SDS011;51730;56.950;24.126;2022-08-19T08:55:12;16.88;;;6.63;;
65145;SDS011;51730;56.950;24.126;2022-08-19T09:00:39;17.80;;;6.50;;
65145;SDS011;51730;56.950;24.126;2022-08-19T09:03:16;18.50;;;6.45;;
65145;SDS011;51730;56.950;24.126;2022-08-19T09:17:21;16.73;;;6.93;;
65145;SDS011;51730;56.950;24.126;2022-08-19T09:19:57;32.28;;;17.50;;
65145;SDS011;51730;56.950;24.126;2022-08-19T09:22:30;13.15;;;7.05;;
65145;SDS011;51730;56.950;24.126;2022-08-19T09:24:58;10.35;;;7.43;;
65145;SDS011;51730;56.950;24.126;2022-08-19T09:27:25;14.82;;;9.38;;
65145;SDS011;51730;56.950;24.126;2022-08-19T09:30:08;10.02;;;8.05;;
65145;SDS011;51730;56.950;24.126;2022-08-19T09:32:39;16.55;;;8.07;;
65145;SDS011;51730;56.950;24.126;2022-08-19T09:35:18;12.82;;;6.45;;
65145;SDS011;51730;56.950;24.126;2022-08-19T09:37:53;11.02;;;6.10;;
65145;SDS011;51730;56.950;24.126;2022-08-19T09:40:25;10.13;;;5.50;;
65145;SDS011;51730;56.950;24.126;2022-08-19T09:43:03;17.02;;;5.90;;
65145;SDS011;51730;56.950;24.126;2022-08-19T09:45:38;11.63;;;5.32;;
65145;SDS011;51730;56.950;24.126;2022-08-19T09:48:05;9.95;;;5.63;;
65145;SDS011;51730;56.950;24.126;2022-08-19T09:50:34;10.57;;;5.25;;
65145;SDS011;51730;56.950;24.126;2022-08-19T09:53:17;8.43;;;5.30;;
65145;SDS011;51730;56.950;24.126;2022-08-19T09:55:45;10.18;;;5.43;;
65145;SDS011;51730;56.950;24.126;2022-08-19T09:58:11;5.65;;;4.88;;
65145;SDS011;51730;56.950;24.126;2022-08-19T10:00:38;7.65;;;4.80;;
65145;SDS011;51730;56.950;24.126;2022-08-19T10:03:05;8.70;;;5.40;;
65145;SDS011;51730;56.950;24.126;2022-08-19T10:05:33;10.93;;;5.53;;
65145;SDS011;51730;56.950;24.126;2022-08-19T10:08:31;11.00;;;5.70;;
65145;SDS011;51730;56.950;24.126;2022-08-19T10:11:01;7.13;;;5.77;;
65145;SDS011;51730;56.950;24.126;2022-08-19T10:13:49;11.30;;;4.88;;
65145;SDS011;51730;56.950;24.126;2022-08-19T10:16:18;10.07;;;4.50;;
65145;SDS011;51730;56.950;24.126;2022-08-19T10:18:51;7.28;;;4.70;;
65145;SDS011;51730;56.950;24.126;2022-08-19T10:21:28;7.68;;;4.97;;
65145;SDS011;51730;56.950;24.126;2022-08-19T10:23:58;15.68;;;5.95;;
65145;SDS011;51730;56.950;24.126;2022-08-19T10:26:29;7.35;;;4.53;;
65145;SDS011;51730;56.950;24.126;2022-08-19T10:28:58;13.23;;;4.95;;
65145;SDS011;51730;56.950;24.126;2022-08-19T10:31:34;8.95;;;4.68;;
65145;SDS011;51730;56.950;24.126;2022-08-19T10:34:21;7.63;;;4.80;;
65145;SDS011;51730;56.950;24.126;2022-08-19T10:36:54;11.40;;;4.85;;
65145;SDS011;51730;56.950;24.126;2022-08-19T10:39:26;11.82;;;4.93;;
65145;SDS011;51730;56.950;24.126;2022-08-19T10:42:09;12.60;;;4.72;;
65145;SDS011;51730;56.950;24.126;2022-08-19T10:44:40;9.68;;;4.68;;
65145;SDS011;51730;56.950;24.126;2022-08-19T10:47:07;10.68;;;4.60;;
65145;SDS011;51730;56.950;24.126;2022-08-19T10:49:50;16.60;;;4.90;;
65145;SDS011;51730;56.950;24.126;2022-08-19T10:52:37;7.60;;;5.28;;
65145;SDS011;51730;56.950;24.126;2022-08-19T10:55:15;7.68;;;4.90;;
65145;SDS011;51730;56.950;24.126;2022-08-19T10:58:13;10.63;;;5.05;;
65145;SDS011;51730;56.950;24.126;2022-08-19T11:00:42;9.23;;;5.72;;
65145;SDS011;51730;56.950;24.126;2022-08-19T11:03:16;11.52;;;5.88;;
65145;SDS011;51730;56.950;24.126;2022-08-19T11:05:44;8.13;;;5.10;;
65145;SDS011;51730;56.950;24.126;2022-08-19T11:08:11;9.93;;;4.72;;
65145;SDS011;51730;56.950;24.126;2022-08-19T11:10:49;10.55;;;5.85;;
65145;SDS011;51730;56.950;24.126;2022-08-19T11:13:17;8.10;;;4.95;;
65145;SDS011;51730;56.950;24.126;2022-08-19T11:15:44;10.25;;;5.10;;
65145;SDS011;51730;56.950;24.126;2022-08-19T11:18:13;9.70;;;4.70;;
65145;SDS011;51730;56.950;24.126;2022-08-19T11:20:40;9.30;;;5.57;;
65145;SDS011;51730;56.950;24.126;2022-08-19T11:23:07;14.10;;;5.53;;
65145;SDS011;51730;56.950;24.126;2022-08-19T11:25:34;11.82;;;7.35;;
65145;SDS011;51730;56.950;24.126;2022-08-19T11:28:04;13.00;;;7.45;;
65145;SDS011;51730;56.950;24.126;2022-08-19T11:30:31;9.68;;;6.07;;
65145;SDS011;51730;56.950;24.126;2022-08-19T11:32:59;10.68;;;5.57;;
65145;SDS011;51730;56.950;24.126;2022-08-19T11:35:27;9.32;;;4.93;;
65145;SDS011;51730;56.950;24.126;2022-08-19T11:37:54;14.35;;;6.00;;
65145;SDS011;51730;56.950;24.126;2022-08-19T11:40:22;7.22;;;5.05;;
65145;SDS011;51730;56.950;24.126;2022-08-19T11:42:49;6.32;;;4.70;;
65145;SDS011;51730;56.950;24.126;2022-08-19T11:45:23;10.95;;;5.43;;
65145;SDS011;51730;56.950;24.126;2022-08-19T11:47:51;15.15;;;7.22;;
65145;SDS011;51730;56.950;24.126;2022-08-19T11:50:19;12.35;;;5.50;;
65145;SDS011;51730;56.950;24.126;2022-08-19T11:52:46;10.48;;;5.38;;
65145;SDS011;51730;56.950;24.126;2022-08-19T11:55:15;8.10;;;4.80;;
65145;SDS011;51730;56.950;24.126;2022-08-19T11:57:42;9.32;;;4.60;;
65145;SDS011;51730;56.950;24.126;2022-08-19T12:00:10;8.18;;;4.97;;
65145;SDS011;51730;56.950;24.126;2022-08-19T12:02:40;13.10;;;5.25;;
65145;SDS011;51730;56.950;24.126;2022-08-19T12:05:08;6.80;;;4.45;;
65145;SDS011;51730;56.950;24.126;2022-08-19T12:07:38;8.98;;;5.60;;
65145;SDS011;51730;56.950;24.126;2022-08-19T12:10:07;8.73;;;5.43;;
65145;SDS011;51730;56.950;24.126;2022-08-19T12:12:35;8.63;;;4.88;;
65145;SDS011;51730;56.950;24.126;2022-08-19T12:15:06;9.88;;;4.93;;
65145;SDS011;51730;56.950;24.126;2022-08-19T12:17:34;13.45;;;5.63;;
65145;SDS011;51730;56.950;24.126;2022-08-19T12:20:01;7.85;;;5.18;;
65145;SDS011;51730;56.950;24.126;2022-08-19T12:22:28;6.78;;;4.63;;
65145;SDS011;51730;56.950;24.126;2022-08-19T12:24:55;8.68;;;5.78;;
65145;SDS011;51730;56.950;24.126;2022-08-19T12:27:22;8.85;;;5.47;;
65145;SDS011;51730;56.950;24.126;2022-08-19T12:30:07;7.80;;;5.50;;
65145;SDS011;51730;56.950;24.126;2022-08-19T12:32:37;12.00;;;6.07;;
65145;SDS011;51730;56.950;24.126;2022-08-19T12:35:05;10.20;;;5.18;;
65145;SDS011;51730;56.950;24.126;2022-08-19T12:37:34;12.73;;;6.20;;
65145;SDS011;51730;56.950;24.126;2022-08-19T12:40:01;10.48;;;5.85;;
65145;SDS011;51730;56.950;24.126;2022-08-19T12:42:29;10.15;;;5.82;;
65145;SDS011;51730;56.950;24.126;2022-08-19T12:44:56;13.45;;;6.03;;
65145;SDS011;51730;56.950;24.126;2022-08-19T12:47:23;11.23;;;5.45;;
65145;SDS011;51730;56.950;24.126;2022-08-19T12:49:52;13.02;;;6.30;;
65145;SDS011;51730;56.950;24.126;2022-08-19T12:52:24;10.00;;;5.53;;
65145;SDS011;51730;56.950;24.126;2022-08-19T12:54:54;16.30;;;7.20;;
65145;SDS011;51730;56.950;24.126;2022-08-19T12:57:23;12.30;;;7.53;;
65145;SDS011;51730;56.950;24.126;2022-08-19T12:59:59;11.48;;;7.10;;
65145;SDS011;51730;56.950;24.126;2022-08-19T13:02:42;8.95;;;5.82;;
65145;SDS011;51730;56.950;24.126;2022-08-19T13:05:13;12.60;;;5.88;;
65145;SDS011;51730;56.950;24.126;2022-08-19T13:07:42;15.10;;;6.03;;
65145;SDS011;51730;56.950;24.126;2022-08-19T13:10:13;9.53;;;6.27;;
65145;SDS011;51730;56.950;24.126;2022-08-19T13:12:42;13.60;;;6.40;;
65145;SDS011;51730;56.950;24.126;2022-08-19T13:15:12;16.98;;;6.38;;
65145;SDS011;51730;56.950;24.126;2022-08-19T13:17:40;25.65;;;6.03;;
65145;SDS011;51730;56.950;24.126;2022-08-19T13:20:08;11.18;;;5.40;;
65145;SDS011;51730;56.950;24.126;2022-08-19T13:22:36;13.90;;;5.30;;
65145;SDS011;51730;56.950;24.126;2022-08-19T13:25:05;6.30;;;5.38;;
65145;SDS011;51730;56.950;24.126;2022-08-19T13:27:33;9.45;;;5.13;;
65145;SDS011;51730;56.950;24.126;2022-08-19T13:30:00;15.45;;;5.40;;
65145;SDS011;51730;56.950;24.126;2022-08-19T13:32:48;10.85;;;5.68;;
65145;SDS011;51730;56.950;24.126;2022-08-19T13:35:33;12.80;;;6.13;;
65145;SDS011;51730;56.950;24.126;2022-08-19T13:38:00;14.65;;;6.43;;
65145;SDS011;51730;56.950;24.126;2022-08-19T13:40:34;12.55;;;5.38;;
65145;SDS011;51730;56.950;24.126;2022-08-19T13:43:04;15.05;;;5.68;;
65145;SDS011;51730;56.950;24.126;2022-08-19T13:45:49;9.50;;;5.55;;
65145;SDS011;51730;56.950;24.126;2022-08-19T13:48:22;15.32;;;6.28;;
65145;SDS011;51730;56.950;24.126;2022-08-19T13:50:51;11.30;;;5.38;;
65145;SDS011;51730;56.950;24.126;2022-08-19T13:53:18;5.60;;;4.95;;
65145;SDS011;51730;56.950;24.126;2022-08-19T13:55:45;10.32;;;5.55;;
65145;SDS011;51730;56.950;24.126;2022-08-19T13:58:12;12.65;;;5.13;;
65145;SDS011;51730;56.950;24.126;2022-08-19T14:00:42;12.30;;;5.78;;
65145;SDS011;51730;56.950;24.126;2022-08-19T14:03:10;16.08;;;8.52;;
65145;SDS011;51730;56.950;24.126;2022-08-19T14:05:38;11.40;;;6.35;;
65145;SDS011;51730;56.950;24.126;2022-08-19T14:08:05;14.77;;;6.53;;
65145;SDS011;51730;56.950;24.126;2022-08-19T14:10:32;16.27;;;5.43;;
65145;SDS011;51730;56.950;24.126;2022-08-19T14:13:00;10.55;;;7.05;;
65145;SDS011;51730;56.950;24.126;2022-08-19T14:15:29;10.60;;;6.65;;
65145;SDS011;51730;56.950;24.126;2022-08-19T14:17:56;18.60;;;7.90;;
65145;SDS011;51730;56.950;24.126;2022-08-19T14:20:23;11.07;;;5.65;;
65145;SDS011;51730;56.950;24.126;2022-08-19T14:22:51;10.68;;;5.07;;
65145;SDS011;51730;56.950;24.126;2022-08-19T14:25:24;11.25;;;5.20;;
65145;SDS011;51730;56.950;24.126;2022-08-19T14:27:53;11.23;;;5.32;;
65145;SDS011;51730;56.950;24.126;2022-08-19T14:30:22;13.40;;;5.38;;
65145;SDS011;51730;56.950;24.126;2022-08-19T14:32:54;10.68;;;5.30;;
65145;SDS011;51730;56.950;24.126;2022-08-19T14:35:22;13.43;;;5.03;;
65145;SDS011;51730;56.950;24.126;2022-08-19T14:37:50;9.52;;;5.43;;
65145;SDS011;51730;56.950;24.126;2022-08-19T14:40:22;7.72;;;5.43;;
65145;SDS011;51730;56.950;24.126;2022-08-19T14:42:54;10.05;;;5.38;;
65145;SDS011;51730;56.950;24.126;2022-08-19T14:45:26;10.57;;;5.65;;
65145;SDS011;51730;56.950;24.126;2022-08-19T14:47:54;18.50;;;9.23;;
65145;SDS011;51730;56.950;24.126;2022-08-19T14:50:21;15.40;;;6.97;;
65145;SDS011;51730;56.950;24.126;2022-08-19T14:52:49;8.82;;;5.68;;
65145;SDS011;51730;56.950;24.126;2022-08-19T14:55:23;10.57;;;6.47;;
65145;SDS011;51730;56.950;24.126;2022-08-19T14:57:50;12.23;;;6.75;;
65145;SDS011;51730;56.950;24.126;2022-08-19T15:00:17;13.48;;;7.35;;
65145;SDS011;51730;56.950;24.126;2022-08-19T15:02:44;9.75;;;6.10;;
65145;SDS011;51730;56.950;24.126;2022-08-19T15:05:11;15.15;;;10.07;;